sensor_id;sensor_type;location;lat;lon;timestamp;temperature;humidity
67163;DHT22;54092;53.088;8.850;2024-03-08T00:00:13;2.10;99.90
67163;DHT22;54092;53.088;8.850;2024-03-08T00:02:40;2.00;99.90
67163;DHT22;54092;53.088;8.850;2024-03-08T00:05:06;2.00;99.90
67163;DHT22;54092;53.088;8.850;2024-03-08T00:07:32;2.00;99.90
67163;DHT22;54092;53.088;8.850;2024-03-08T00:09:58;2.00;99.90
67163;DHT22;54092;53.088;8.850;2024-03-08T00:12:24;2.00;99.90
67163;DHT22;54092;53.088;8.850;2024-03-08T00:14:51;2.00;99.90
67163;DHT22;54092;53.088;8.850;2024-03-08T00:17:16;1.90;99.90
67163;DHT22;54092;53.088;8.850;2024-03-08T00:19:42;1.90;99.90
67163;DHT22;54092;53.088;8.850;2024-03-08T00:22:07;1.90;99.90
67163;DHT22;54092;53.088;8.850;2024-03-08T00:24:33;1.90;99.90
67163;DHT22;54092;53.088;8.850;2024-03-08T00:26:58;1.90;99.90
67163;DHT22;54092;53.088;8.850;2024-03-08T00:29:24;1.90;99.90
67163;DHT22;54092;53.088;8.850;2024-03-08T00:31:50;1.80;99.90
67163;DHT22;54092;53.088;8.850;2024-03-08T00:34:15;1.80;99.90
67163;DHT22;54092;53.088;8.850;2024-03-08T00:36:41;1.80;99.90
67163;DHT22;54092;53.088;8.850;2024-03-08T00:39:06;1.80;99.90
67163;DHT22;54092;53.088;8.850;2024-03-08T00:41:32;1.70;99.90
67163;DHT22;54092;53.088;8.850;2024-03-08T00:43:58;1.70;99.90
67163;DHT22;54092;53.088;8.850;2024-03-08T00:46:24;1.70;99.90
67163;DHT22;54092;53.088;8.850;2024-03-08T00:48:49;1.70;99.90
67163;DHT22;54092;53.088;8.850;2024-03-08T00:51:15;1.70;99.90
67163;DHT22;54092;53.088;8.850;2024-03-08T00:53:41;1.70;99.90
67163;DHT22;54092;53.088;8.850;2024-03-08T00:56:08;1.70;99.90
67163;DHT22;54092;53.088;8.850;2024-03-08T00:58:36;1.70;99.90
67163;DHT22;54092;53.088;8.850;2024-03-08T01:01:02;1.70;99.90
67163;DHT22;54092;53.088;8.850;2024-03-08T01:03:28;1.70;99.90
67163;DHT22;54092;53.088;8.850;2024-03-08T01:05:53;1.60;99.90
67163;DHT22;54092;53.088;8.850;2024-03-08T01:08:19;1.60;99.90
67163;DHT22;54092;53.088;8.850;2024-03-08T01:10:44;1.60;99.90
67163;DHT22;54092;53.088;8.850;2024-03-08T01:13:10;1.50;99.90
67163;DHT22;54092;53.088;8.850;2024-03-08T01:15:36;1.50;99.90
67163;DHT22;54092;53.088;8.850;2024-03-08T01:18:01;1.60;99.90
67163;DHT22;54092;53.088;8.850;2024-03-08T01:20:27;1.50;99.90
67163;DHT22;54092;53.088;8.850;2024-03-08T01:22:53;1.50;99.90
67163;DHT22;54092;53.088;8.850;2024-03-08T01:25:18;1.50;99.90
67163;DHT22;54092;53.088;8.850;2024-03-08T01:27:44;1.40;99.90
67163;DHT22;54092;53.088;8.850;2024-03-08T01:30:10;1.40;99.90
67163;DHT22;54092;53.088;8.850;2024-03-08T01:32:36;1.40;99.90
67163;DHT22;54092;53.088;8.850;2024-03-08T01:35:01;1.40;99.90
67163;DHT22;54092;53.088;8.850;2024-03-08T01:37:28;1.40;99.90
67163;DHT22;54092;53.088;8.850;2024-03-08T01:39:54;1.40;99.90
67163;DHT22;54092;53.088;8.850;2024-03-08T01:42:20;1.40;99.90
67163;DHT22;54092;53.088;8.850;2024-03-08T01:44:45;1.40;99.90
67163;DHT22;54092;53.088;8.850;2024-03-08T01:47:11;1.40;99.90
67163;DHT22;54092;53.088;8.850;2024-03-08T01:49:37;1.40;99.90
67163;DHT22;54092;53.088;8.850;2024-03-08T01:52:03;1.40;99.90
67163;DHT22;54092;53.088;8.850;2024-03-08T01:54:29;1.30;99.90
67163;DHT22;54092;53.088;8.850;2024-03-08T01:56:56;1.30;99.90
67163;DHT22;54092;53.088;8.850;2024-03-08T01:59:24;1.30;99.90
67163;DHT22;54092;53.088;8.850;2024-03-08T02:01:50;1.30;99.90
67163;DHT22;54092;53.088;8.850;2024-03-08T02:04:17;1.30;99.90
67163;DHT22;54092;53.088;8.850;2024-03-08T02:06:43;1.30;99.90
67163;DHT22;54092;53.088;8.850;2024-03-08T02:09:08;1.30;99.90
67163;DHT22;54092;53.088;8.850;2024-03-08T02:11:34;1.40;99.90
67163;DHT22;54092;53.088;8.850;2024-03-08T02:14:01;1.30;99.90
67163;DHT22;54092;53.088;8.850;2024-03-08T02:16:26;1.40;99.90
67163;DHT22;54092;53.088;8.850;2024-03-08T02:18:52;1.30;99.90
67163;DHT22;54092;53.088;8.850;2024-03-08T02:21:18;1.30;99.90
67163;DHT22;54092;53.088;8.850;2024-03-08T02:23:44;1.30;99.90
67163;DHT22;54092;53.088;8.850;2024-03-08T02:26:10;1.30;99.90
67163;DHT22;54092;53.088;8.850;2024-03-08T02:28:36;1.20;99.90
67163;DHT22;54092;53.088;8.850;2024-03-08T02:31:01;1.20;99.90
67163;DHT22;54092;53.088;8.850;2024-03-08T02:33:28;1.20;99.90
67163;DHT22;54092;53.088;8.850;2024-03-08T02:35:54;1.10;99.90
67163;DHT22;54092;53.088;8.850;2024-03-08T02:38:22;1.10;99.90
67163;DHT22;54092;53.088;8.850;2024-03-08T02:40:49;1.10;99.90
67163;DHT22;54092;53.088;8.850;2024-03-08T02:43:16;1.10;99.90
67163;DHT22;54092;53.088;8.850;2024-03-08T02:45:42;1.10;99.90
67163;DHT22;54092;53.088;8.850;2024-03-08T02:48:08;1.10;99.90
67163;DHT22;54092;53.088;8.850;2024-03-08T02:50:34;1.10;99.90
67163;DHT22;54092;53.088;8.850;2024-03-08T02:53:05;1.00;99.90
67163;DHT22;54092;53.088;8.850;2024-03-08T02:55:31;1.00;99.90
67163;DHT22;54092;53.088;8.850;2024-03-08T02:57:58;1.00;99.90
67163;DHT22;54092;53.088;8.850;2024-03-08T03:00:24;1.00;99.90
67163;DHT22;54092;53.088;8.850;2024-03-08T03:02:50;1.00;99.90
67163;DHT22;54092;53.088;8.850;2024-03-08T03:05:23;1.00;99.90
67163;DHT22;54092;53.088;8.850;2024-03-08T03:07:49;1.00;99.90
67163;DHT22;54092;53.088;8.850;2024-03-08T03:10:16;0.90;99.90
67163;DHT22;54092;53.088;8.850;2024-03-08T03:12:42;0.90;99.90
67163;DHT22;54092;53.088;8.850;2024-03-08T03:15:08;1.00;99.90
67163;DHT22;54092;53.088;8.850;2024-03-08T03:17:34;1.00;99.90
67163;DHT22;54092;53.088;8.850;2024-03-08T03:19:59;0.90;99.90
67163;DHT22;54092;53.088;8.850;2024-03-08T03:22:28;0.90;99.90
67163;DHT22;54092;53.088;8.850;2024-03-08T03:24:55;0.90;99.90
67163;DHT22;54092;53.088;8.850;2024-03-08T03:27:23;0.90;99.90
67163;DHT22;54092;53.088;8.850;2024-03-08T03:29:50;0.90;99.90
67163;DHT22;54092;53.088;8.850;2024-03-08T03:32:17;0.90;99.90
67163;DHT22;54092;53.088;8.850;2024-03-08T03:34:44;0.90;99.90
67163;DHT22;54092;53.088;8.850;2024-03-08T03:37:10;0.90;99.90
67163;DHT22;54092;53.088;8.850;2024-03-08T03:39:39;0.90;99.90
67163;DHT22;54092;53.088;8.850;2024-03-08T03:42:17;0.80;99.90
67163;DHT22;54092;53.088;8.850;2024-03-08T03:44:46;0.80;99.90
67163;DHT22;54092;53.088;8.850;2024-03-08T03:47:13;0.80;99.90
67163;DHT22;54092;53.088;8.850;2024-03-08T03:49:42;0.80;99.90
67163;DHT22;54092;53.088;8.850;2024-03-08T03:52:08;0.80;99.90
67163;DHT22;54092;53.088;8.850;2024-03-08T03:54:34;0.90;99.90
67163;DHT22;54092;53.088;8.850;2024-03-08T03:56:59;0.90;99.90
67163;DHT22;54092;53.088;8.850;2024-03-08T03:59:26;0.90;99.90
67163;DHT22;54092;53.088;8.850;2024-03-08T04:01:52;0.80;99.90
67163;DHT22;54092;53.088;8.850;2024-03-08T04:04:18;0.90;99.90
67163;DHT22;54092;53.088;8.850;2024-03-08T04:06:43;0.80;99.90
67163;DHT22;54092;53.088;8.850;2024-03-08T04:09:10;0.80;99.90
67163;DHT22;54092;53.088;8.850;2024-03-08T04:11:36;0.80;99.90
67163;DHT22;54092;53.088;8.850;2024-03-08T04:14:02;0.80;99.90
67163;DHT22;54092;53.088;8.850;2024-03-08T04:16:27;0.80;99.90
67163;DHT22;54092;53.088;8.850;2024-03-08T04:18:53;0.80;99.90
67163;DHT22;54092;53.088;8.850;2024-03-08T04:21:19;0.80;99.90
67163;DHT22;54092;53.088;8.850;2024-03-08T04:23:45;0.70;99.90
67163;DHT22;54092;53.088;8.850;2024-03-08T04:26:11;0.70;99.90
67163;DHT22;54092;53.088;8.850;2024-03-08T04:28:36;0.70;99.90
67163;DHT22;54092;53.088;8.850;2024-03-08T04:31:03;0.70;99.90
67163;DHT22;54092;53.088;8.850;2024-03-08T04:33:28;0.70;99.90
67163;DHT22;54092;53.088;8.850;2024-03-08T04:35:54;0.60;99.90
67163;DHT22;54092;53.088;8.850;2024-03-08T04:38:19;0.70;99.90
67163;DHT22;54092;53.088;8.850;2024-03-08T04:40:45;0.60;99.90
67163;DHT22;54092;53.088;8.850;2024-03-08T04:43:10;0.60;99.90
67163;DHT22;54092;53.088;8.850;2024-03-08T04:45:36;0.60;99.90
67163;DHT22;54092;53.088;8.850;2024-03-08T04:48:02;0.60;99.90
67163;DHT22;54092;53.088;8.850;2024-03-08T04:50:28;0.70;99.90
67163;DHT22;54092;53.088;8.850;2024-03-08T04:52:54;0.70;99.90
67163;DHT22;54092;53.088;8.850;2024-03-08T04:55:20;0.70;99.90
67163;DHT22;54092;53.088;8.850;2024-03-08T04:57:47;0.70;99.90
67163;DHT22;54092;53.088;8.850;2024-03-08T05:00:13;0.70;99.90
67163;DHT22;54092;53.088;8.850;2024-03-08T05:02:41;0.60;99.90
67163;DHT22;54092;53.088;8.850;2024-03-08T05:05:07;0.60;99.90
67163;DHT22;54092;53.088;8.850;2024-03-08T05:07:34;0.60;99.90
67163;DHT22;54092;53.088;8.850;2024-03-08T05:10:00;0.60;99.90
67163;DHT22;54092;53.088;8.850;2024-03-08T05:12:27;0.60;99.90
67163;DHT22;54092;53.088;8.850;2024-03-08T05:14:53;0.50;99.90
67163;DHT22;54092;53.088;8.850;2024-03-08T05:17:19;0.60;99.90
67163;DHT22;54092;53.088;8.850;2024-03-08T05:19:44;0.60;99.90
67163;DHT22;54092;53.088;8.850;2024-03-08T05:22:10;0.50;99.90
67163;DHT22;54092;53.088;8.850;2024-03-08T05:24:35;0.50;99.90
67163;DHT22;54092;53.088;8.850;2024-03-08T05:27:01;0.50;99.90
67163;DHT22;54092;53.088;8.850;2024-03-08T05:29:28;0.50;99.90
67163;DHT22;54092;53.088;8.850;2024-03-08T05:31:54;0.50;99.90
67163;DHT22;54092;53.088;8.850;2024-03-08T05:34:20;0.40;99.90
67163;DHT22;54092;53.088;8.850;2024-03-08T05:36:47;0.40;99.90
67163;DHT22;54092;53.088;8.850;2024-03-08T05:39:15;0.40;99.90
67163;DHT22;54092;53.088;8.850;2024-03-08T05:41:41;0.50;99.90
67163;DHT22;54092;53.088;8.850;2024-03-08T05:44:07;0.40;99.90
67163;DHT22;54092;53.088;8.850;2024-03-08T05:46:33;0.40;99.90
67163;DHT22;54092;53.088;8.850;2024-03-08T05:48:58;0.40;99.90
67163;DHT22;54092;53.088;8.850;2024-03-08T05:51:25;0.40;99.90
67163;DHT22;54092;53.088;8.850;2024-03-08T05:53:53;0.50;99.90
67163;DHT22;54092;53.088;8.850;2024-03-08T05:56:19;0.50;99.90
67163;DHT22;54092;53.088;8.850;2024-03-08T05:58:44;0.50;99.90
67163;DHT22;54092;53.088;8.850;2024-03-08T06:01:11;0.50;99.90
67163;DHT22;54092;53.088;8.850;2024-03-08T06:03:38;0.50;99.90
67163;DHT22;54092;53.088;8.850;2024-03-08T06:06:13;0.40;99.90
67163;DHT22;54092;53.088;8.850;2024-03-08T06:08:38;0.40;99.90
67163;DHT22;54092;53.088;8.850;2024-03-08T06:11:04;0.40;99.90
67163;DHT22;54092;53.088;8.850;2024-03-08T06:13:31;0.40;99.90
67163;DHT22;54092;53.088;8.850;2024-03-08T06:15:57;0.50;99.90
67163;DHT22;54092;53.088;8.850;2024-03-08T06:18:22;0.50;99.90
67163;DHT22;54092;53.088;8.850;2024-03-08T06:20:48;0.40;99.90
67163;DHT22;54092;53.088;8.850;2024-03-08T06:23:14;0.50;99.90
67163;DHT22;54092;53.088;8.850;2024-03-08T06:25:43;0.60;99.90
67163;DHT22;54092;53.088;8.850;2024-03-08T06:28:09;0.50;99.90
67163;DHT22;54092;53.088;8.850;2024-03-08T06:30:34;0.70;99.90
67163;DHT22;54092;53.088;8.850;2024-03-08T06:33:00;0.90;99.90
67163;DHT22;54092;53.088;8.850;2024-03-08T06:35:26;0.90;99.90
67163;DHT22;54092;53.088;8.850;2024-03-08T06:37:51;0.90;99.90
67163;DHT22;54092;53.088;8.850;2024-03-08T06:40:17;0.80;99.90
67163;DHT22;54092;53.088;8.850;2024-03-08T06:42:42;0.90;99.90
67163;DHT22;54092;53.088;8.850;2024-03-08T06:45:08;1.00;99.90
67163;DHT22;54092;53.088;8.850;2024-03-08T06:47:35;1.00;99.90
67163;DHT22;54092;53.088;8.850;2024-03-08T06:50:01;0.90;99.90
67163;DHT22;54092;53.088;8.850;2024-03-08T06:52:27;1.00;99.90
67163;DHT22;54092;53.088;8.850;2024-03-08T06:54:52;1.10;99.90
67163;DHT22;54092;53.088;8.850;2024-03-08T06:57:18;1.20;99.90
67163;DHT22;54092;53.088;8.850;2024-03-08T06:59:47;1.20;99.90
67163;DHT22;54092;53.088;8.850;2024-03-08T07:02:13;1.30;99.90
67163;DHT22;54092;53.088;8.850;2024-03-08T07:04:38;1.40;99.90
67163;DHT22;54092;53.088;8.850;2024-03-08T07:07:05;1.40;99.90
67163;DHT22;54092;53.088;8.850;2024-03-08T07:09:30;1.40;99.90
67163;DHT22;54092;53.088;8.850;2024-03-08T07:11:56;1.50;99.90
67163;DHT22;54092;53.088;8.850;2024-03-08T07:14:22;1.50;99.90
67163;DHT22;54092;53.088;8.850;2024-03-08T07:16:48;1.60;99.90
67163;DHT22;54092;53.088;8.850;2024-03-08T07:19:14;1.70;99.90
67163;DHT22;54092;53.088;8.850;2024-03-08T07:21:40;1.70;99.90
67163;DHT22;54092;53.088;8.850;2024-03-08T07:24:07;1.70;99.90
67163;DHT22;54092;53.088;8.850;2024-03-08T07:26:45;1.80;99.90
67163;DHT22;54092;53.088;8.850;2024-03-08T07:29:17;1.90;99.90
67163;DHT22;54092;53.088;8.850;2024-03-08T07:31:43;2.00;99.90
67163;DHT22;54092;53.088;8.850;2024-03-08T07:34:27;2.00;99.90
67163;DHT22;54092;53.088;8.850;2024-03-08T07:36:57;2.10;99.90
67163;DHT22;54092;53.088;8.850;2024-03-08T07:39:23;2.10;99.90
67163;DHT22;54092;53.088;8.850;2024-03-08T07:41:49;2.20;99.90
67163;DHT22;54092;53.088;8.850;2024-03-08T07:44:18;2.30;99.90
67163;DHT22;54092;53.088;8.850;2024-03-08T07:46:43;2.40;99.90
67163;DHT22;54092;53.088;8.850;2024-03-08T07:49:09;2.50;99.90
67163;DHT22;54092;53.088;8.850;2024-03-08T07:51:37;2.50;99.90
67163;DHT22;54092;53.088;8.850;2024-03-08T07:54:03;2.60;99.90
67163;DHT22;54092;53.088;8.850;2024-03-08T07:56:30;2.70;99.90
67163;DHT22;54092;53.088;8.850;2024-03-08T07:58:56;2.80;99.90
67163;DHT22;54092;53.088;8.850;2024-03-08T08:01:21;2.90;99.90
67163;DHT22;54092;53.088;8.850;2024-03-08T08:03:47;2.90;99.90
67163;DHT22;54092;53.088;8.850;2024-03-08T08:06:15;3.10;99.90
67163;DHT22;54092;53.088;8.850;2024-03-08T08:08:44;3.20;99.90
67163;DHT22;54092;53.088;8.850;2024-03-08T08:11:10;3.30;99.90
67163;DHT22;54092;53.088;8.850;2024-03-08T08:13:37;3.40;99.90
67163;DHT22;54092;53.088;8.850;2024-03-08T08:16:05;3.40;99.90
67163;DHT22;54092;53.088;8.850;2024-03-08T08:18:31;3.50;99.90
67163;DHT22;54092;53.088;8.850;2024-03-08T08:20:58;3.70;99.90
67163;DHT22;54092;53.088;8.850;2024-03-08T08:23:25;3.80;99.90
67163;DHT22;54092;53.088;8.850;2024-03-08T08:25:51;3.90;99.90
67163;DHT22;54092;53.088;8.850;2024-03-08T08:28:17;4.00;99.90
67163;DHT22;54092;53.088;8.850;2024-03-08T08:30:43;4.10;99.90
67163;DHT22;54092;53.088;8.850;2024-03-08T08:33:09;4.20;99.90
67163;DHT22;54092;53.088;8.850;2024-03-08T08:35:34;4.40;99.90
67163;DHT22;54092;53.088;8.850;2024-03-08T08:38:00;4.50;99.90
67163;DHT22;54092;53.088;8.850;2024-03-08T08:40:26;4.70;99.90
67163;DHT22;54092;53.088;8.850;2024-03-08T08:42:52;4.70;99.90
67163;DHT22;54092;53.088;8.850;2024-03-08T08:45:22;4.70;99.90
67163;DHT22;54092;53.088;8.850;2024-03-08T08:47:48;4.90;99.90
67163;DHT22;54092;53.088;8.850;2024-03-08T08:50:15;5.40;99.90
67163;DHT22;54092;53.088;8.850;2024-03-08T08:52:41;6.10;99.90
67163;DHT22;54092;53.088;8.850;2024-03-08T08:55:10;6.70;99.90
67163;DHT22;54092;53.088;8.850;2024-03-08T08:57:42;7.50;96.00
67163;DHT22;54092;53.088;8.850;2024-03-08T09:00:08;8.00;91.60
67163;DHT22;54092;53.088;8.850;2024-03-08T09:02:34;8.60;87.20
67163;DHT22;54092;53.088;8.850;2024-03-08T09:05:00;9.20;81.90
67163;DHT22;54092;53.088;8.850;2024-03-08T09:07:26;9.40;76.50
67163;DHT22;54092;53.088;8.850;2024-03-08T09:09:53;9.60;75.30
67163;DHT22;54092;53.088;8.850;2024-03-08T09:12:22;9.70;72.50
67163;DHT22;54092;53.088;8.850;2024-03-08T09:14:48;9.70;73.00
67163;DHT22;54092;53.088;8.850;2024-03-08T09:17:14;9.90;72.10
67163;DHT22;54092;53.088;8.850;2024-03-08T09:19:43;10.20;72.70
67163;DHT22;54092;53.088;8.850;2024-03-08T09:22:08;10.60;69.10
67163;DHT22;54092;53.088;8.850;2024-03-08T09:24:34;10.90;71.20
67163;DHT22;54092;53.088;8.850;2024-03-08T09:26:59;11.20;69.10
67163;DHT22;54092;53.088;8.850;2024-03-08T09:29:25;11.40;65.70
67163;DHT22;54092;53.088;8.850;2024-03-08T09:31:50;11.60;63.80
67163;DHT22;54092;53.088;8.850;2024-03-08T09:34:17;11.80;63.00
67163;DHT22;54092;53.088;8.850;2024-03-08T09:36:44;11.70;61.40
67163;DHT22;54092;53.088;8.850;2024-03-08T09:39:09;11.70;61.20
67163;DHT22;54092;53.088;8.850;2024-03-08T09:41:35;11.60;62.30
67163;DHT22;54092;53.088;8.850;2024-03-08T09:44:00;11.70;61.10
67163;DHT22;54092;53.088;8.850;2024-03-08T09:46:26;11.40;59.80
67163;DHT22;54092;53.088;8.850;2024-03-08T09:48:55;11.70;60.30
67163;DHT22;54092;53.088;8.850;2024-03-08T09:51:27;12.30;59.00
67163;DHT22;54092;53.088;8.850;2024-03-08T09:53:53;12.40;56.80
67163;DHT22;54092;53.088;8.850;2024-03-08T09:56:19;12.30;57.30
67163;DHT22;54092;53.088;8.850;2024-03-08T09:58:45;12.40;56.30
67163;DHT22;54092;53.088;8.850;2024-03-08T10:01:33;12.50;55.00
67163;DHT22;54092;53.088;8.850;2024-03-08T10:03:58;12.40;56.00
67163;DHT22;54092;53.088;8.850;2024-03-08T10:06:24;12.50;54.60
67163;DHT22;54092;53.088;8.850;2024-03-08T10:08:50;12.60;54.50
67163;DHT22;54092;53.088;8.850;2024-03-08T10:11:19;12.80;54.50
67163;DHT22;54092;53.088;8.850;2024-03-08T10:13:46;12.80;52.90
67163;DHT22;54092;53.088;8.850;2024-03-08T10:16:13;13.00;50.80
67163;DHT22;54092;53.088;8.850;2024-03-08T10:18:38;12.50;51.90
67163;DHT22;54092;53.088;8.850;2024-03-08T10:21:06;13.00;51.90
67163;DHT22;54092;53.088;8.850;2024-03-08T10:23:32;13.10;52.40
67163;DHT22;54092;53.088;8.850;2024-03-08T10:26:12;13.10;52.40
67163;DHT22;54092;53.088;8.850;2024-03-08T10:28:48;13.50;52.10
67163;DHT22;54092;53.088;8.850;2024-03-08T10:31:18;14.10;48.90
67163;DHT22;54092;53.088;8.850;2024-03-08T10:33:45;14.30;46.80
67163;DHT22;54092;53.088;8.850;2024-03-08T10:36:12;14.30;45.60
67163;DHT22;54092;53.088;8.850;2024-03-08T10:38:40;14.10;47.00
67163;DHT22;54092;53.088;8.850;2024-03-08T10:41:07;14.00;46.00
67163;DHT22;54092;53.088;8.850;2024-03-08T10:46:35;13.00;48.80
67163;DHT22;54092;53.088;8.850;2024-03-08T10:49:08;13.10;48.80
67163;DHT22;54092;53.088;8.850;2024-03-08T10:51:38;12.90;49.60
67163;DHT22;54092;53.088;8.850;2024-03-08T10:54:07;13.00;49.90
67163;DHT22;54092;53.088;8.850;2024-03-08T10:56:34;12.80;48.90
67163;DHT22;54092;53.088;8.850;2024-03-08T10:59:00;13.00;48.60
67163;DHT22;54092;53.088;8.850;2024-03-08T11:01:26;12.80;47.00
67163;DHT22;54092;53.088;8.850;2024-03-08T11:03:51;13.10;47.40
67163;DHT22;54092;53.088;8.850;2024-03-08T11:06:42;13.50;47.40
67163;DHT22;54092;53.088;8.850;2024-03-08T11:09:27;13.50;46.60
67163;DHT22;54092;53.088;8.850;2024-03-08T11:12:20;14.00;46.50
67163;DHT22;54092;53.088;8.850;2024-03-08T11:14:49;14.30;46.40
67163;DHT22;54092;53.088;8.850;2024-03-08T11:17:20;14.40;44.20
67163;DHT22;54092;53.088;8.850;2024-03-08T11:19:47;14.60;45.50
67163;DHT22;54092;53.088;8.850;2024-03-08T11:22:25;15.00;43.70
67163;DHT22;54092;53.088;8.850;2024-03-08T11:24:52;15.20;42.50
67163;DHT22;54092;53.088;8.850;2024-03-08T11:27:18;15.10;41.80
67163;DHT22;54092;53.088;8.850;2024-03-08T11:30:00;15.30;41.80
67163;DHT22;54092;53.088;8.850;2024-03-08T11:32:29;15.30;41.80
67163;DHT22;54092;53.088;8.850;2024-03-08T11:34:55;15.40;40.60
67163;DHT22;54092;53.088;8.850;2024-03-08T11:37:21;15.40;42.10
67163;DHT22;54092;53.088;8.850;2024-03-08T11:39:51;15.60;39.50
67163;DHT22;54092;53.088;8.850;2024-03-08T11:42:18;15.60;39.40
67163;DHT22;54092;53.088;8.850;2024-03-08T11:44:48;15.70;39.70
67163;DHT22;54092;53.088;8.850;2024-03-08T11:47:15;15.90;38.40
67163;DHT22;54092;53.088;8.850;2024-03-08T11:49:41;15.90;38.70
67163;DHT22;54092;53.088;8.850;2024-03-08T11:52:13;16.00;37.40
67163;DHT22;54092;53.088;8.850;2024-03-08T11:54:52;15.50;35.60
67163;DHT22;54092;53.088;8.850;2024-03-08T11:57:23;15.20;38.70
67163;DHT22;54092;53.088;8.850;2024-03-08T11:59:52;14.90;39.00
67163;DHT22;54092;53.088;8.850;2024-03-08T12:02:18;15.30;38.80
67163;DHT22;54092;53.088;8.850;2024-03-08T12:04:45;15.70;37.10
67163;DHT22;54092;53.088;8.850;2024-03-08T12:07:11;15.50;38.50
67163;DHT22;54092;53.088;8.850;2024-03-08T12:09:38;15.40;39.00
67163;DHT22;54092;53.088;8.850;2024-03-08T12:12:06;15.30;38.20
67163;DHT22;54092;53.088;8.850;2024-03-08T12:14:33;15.00;40.00
67163;DHT22;54092;53.088;8.850;2024-03-08T12:16:59;14.90;39.30
67163;DHT22;54092;53.088;8.850;2024-03-08T12:19:29;14.80;38.90
67163;DHT22;54092;53.088;8.850;2024-03-08T12:21:55;14.70;39.40
67163;DHT22;54092;53.088;8.850;2024-03-08T12:24:20;14.80;40.90
67163;DHT22;54092;53.088;8.850;2024-03-08T12:26:47;15.10;39.20
67163;DHT22;54092;53.088;8.850;2024-03-08T12:29:21;15.20;38.80
67163;DHT22;54092;53.088;8.850;2024-03-08T12:31:52;15.20;38.10
67163;DHT22;54092;53.088;8.850;2024-03-08T12:34:18;14.90;37.80
67163;DHT22;54092;53.088;8.850;2024-03-08T12:36:48;14.80;39.30
67163;DHT22;54092;53.088;8.850;2024-03-08T12:39:17;14.70;38.40
67163;DHT22;54092;53.088;8.850;2024-03-08T12:41:47;14.40;38.50
67163;DHT22;54092;53.088;8.850;2024-03-08T12:44:13;14.30;39.90
67163;DHT22;54092;53.088;8.850;2024-03-08T12:46:38;14.80;39.40
67163;DHT22;54092;53.088;8.850;2024-03-08T12:49:10;15.20;36.70
67163;DHT22;54092;53.088;8.850;2024-03-08T12:51:37;15.30;36.00
67163;DHT22;54092;53.088;8.850;2024-03-08T12:54:04;14.90;37.40
67163;DHT22;54092;53.088;8.850;2024-03-08T12:56:33;14.70;37.10
67163;DHT22;54092;53.088;8.850;2024-03-08T12:58:59;14.70;36.90
67163;DHT22;54092;53.088;8.850;2024-03-08T13:01:26;14.60;38.00
67163;DHT22;54092;53.088;8.850;2024-03-08T13:03:52;14.90;36.20
67163;DHT22;54092;53.088;8.850;2024-03-08T13:06:21;15.00;35.30
67163;DHT22;54092;53.088;8.850;2024-03-08T13:08:50;14.80;36.50
67163;DHT22;54092;53.088;8.850;2024-03-08T13:11:16;15.10;37.10
67163;DHT22;54092;53.088;8.850;2024-03-08T13:13:42;15.40;37.50
67163;DHT22;54092;53.088;8.850;2024-03-08T13:16:08;15.50;37.60
67163;DHT22;54092;53.088;8.850;2024-03-08T13:18:34;15.20;36.80
67163;DHT22;54092;53.088;8.850;2024-03-08T13:21:00;15.20;38.10
67163;DHT22;54092;53.088;8.850;2024-03-08T13:23:30;15.60;38.10
67163;DHT22;54092;53.088;8.850;2024-03-08T13:25:56;15.70;36.80
67163;DHT22;54092;53.088;8.850;2024-03-08T13:28:22;15.80;36.60
67163;DHT22;54092;53.088;8.850;2024-03-08T13:30:48;15.50;36.50
67163;DHT22;54092;53.088;8.850;2024-03-08T13:33:14;15.50;37.20
67163;DHT22;54092;53.088;8.850;2024-03-08T13:35:40;15.30;36.50
67163;DHT22;54092;53.088;8.850;2024-03-08T13:38:06;15.40;39.00
67163;DHT22;54092;53.088;8.850;2024-03-08T13:40:34;15.40;37.50
67163;DHT22;54092;53.088;8.850;2024-03-08T13:43:00;15.20;38.40
67163;DHT22;54092;53.088;8.850;2024-03-08T13:45:26;15.00;39.50
67163;DHT22;54092;53.088;8.850;2024-03-08T13:47:53;15.40;38.60
67163;DHT22;54092;53.088;8.850;2024-03-08T13:50:19;15.50;37.30
67163;DHT22;54092;53.088;8.850;2024-03-08T13:52:51;15.20;37.70
67163;DHT22;54092;53.088;8.850;2024-03-08T13:55:23;14.60;39.00
67163;DHT22;54092;53.088;8.850;2024-03-08T13:57:50;13.90;39.60
67163;DHT22;54092;53.088;8.850;2024-03-08T14:00:19;13.60;41.10
67163;DHT22;54092;53.088;8.850;2024-03-08T14:02:48;13.20;41.80
67163;DHT22;54092;53.088;8.850;2024-03-08T14:05:14;13.00;43.20
67163;DHT22;54092;53.088;8.850;2024-03-08T14:07:41;13.00;44.30
67163;DHT22;54092;53.088;8.850;2024-03-08T14:10:07;13.50;43.50
67163;DHT22;54092;53.088;8.850;2024-03-08T14:12:35;13.70;42.80
67163;DHT22;54092;53.088;8.850;2024-03-08T14:15:01;13.60;42.90
67163;DHT22;54092;53.088;8.850;2024-03-08T14:17:26;13.60;44.00
67163;DHT22;54092;53.088;8.850;2024-03-08T14:19:53;13.90;42.60
67163;DHT22;54092;53.088;8.850;2024-03-08T14:22:20;14.00;42.30
67163;DHT22;54092;53.088;8.850;2024-03-08T14:24:45;14.10;42.00
67163;DHT22;54092;53.088;8.850;2024-03-08T14:27:11;14.00;42.50
67163;DHT22;54092;53.088;8.850;2024-03-08T14:29:37;14.10;42.20
67163;DHT22;54092;53.088;8.850;2024-03-08T14:32:04;14.00;42.30
67163;DHT22;54092;53.088;8.850;2024-03-08T14:34:32;13.90;42.20
67163;DHT22;54092;53.088;8.850;2024-03-08T14:36:59;14.00;42.10
67163;DHT22;54092;53.088;8.850;2024-03-08T14:39:25;13.90;42.90
67163;DHT22;54092;53.088;8.850;2024-03-08T14:41:55;13.80;43.60
67163;DHT22;54092;53.088;8.850;2024-03-08T14:44:24;13.40;44.30
67163;DHT22;54092;53.088;8.850;2024-03-08T14:46:58;13.20;44.70
67163;DHT22;54092;53.088;8.850;2024-03-08T14:49:24;13.00;45.10
67163;DHT22;54092;53.088;8.850;2024-03-08T14:51:51;12.80;45.40
67163;DHT22;54092;53.088;8.850;2024-03-08T14:54:17;12.70;45.90
67163;DHT22;54092;53.088;8.850;2024-03-08T14:56:45;12.30;46.60
67163;DHT22;54092;53.088;8.850;2024-03-08T14:59:11;12.00;48.40
67163;DHT22;54092;53.088;8.850;2024-03-08T15:01:37;11.80;48.40
67163;DHT22;54092;53.088;8.850;2024-03-08T15:04:02;11.90;49.90
67163;DHT22;54092;53.088;8.850;2024-03-08T15:06:43;11.90;49.30
67163;DHT22;54092;53.088;8.850;2024-03-08T15:09:11;11.80;49.30
67163;DHT22;54092;53.088;8.850;2024-03-08T15:11:40;11.60;50.10
67163;DHT22;54092;53.088;8.850;2024-03-08T15:14:07;11.70;51.00
67163;DHT22;54092;53.088;8.850;2024-03-08T15:16:39;11.50;50.80
67163;DHT22;54092;53.088;8.850;2024-03-08T15:19:06;11.40;51.50
67163;DHT22;54092;53.088;8.850;2024-03-08T15:21:32;11.20;51.90
67163;DHT22;54092;53.088;8.850;2024-03-08T15:23:57;11.10;52.80
67163;DHT22;54092;53.088;8.850;2024-03-08T15:26:23;11.10;53.30
67163;DHT22;54092;53.088;8.850;2024-03-08T15:28:51;11.20;53.40
67163;DHT22;54092;53.088;8.850;2024-03-08T15:31:17;11.20;52.20
67163;DHT22;54092;53.088;8.850;2024-03-08T15:33:44;11.30;53.60
67163;DHT22;54092;53.088;8.850;2024-03-08T15:36:32;11.50;52.50
67163;DHT22;54092;53.088;8.850;2024-03-08T15:38:59;11.60;51.40
67163;DHT22;54092;53.088;8.850;2024-03-08T15:41:24;11.60;52.80